Time;durP1;ratioP1;P1;durP2;ratioP2;P2;SDS_P1;SDS_P2;PMS_P1;PMS_P2;Temp;Humidity;BMP_temperature;BMP_pressure;BME280_temperature;BME280_humidity;BME280_pressure;Samples;Min_cycle;Max_cycle;Signal;HPM_P1;HPM_P2
2023/03/12 00:02:42;;;;;;;4.10;3.70;;;4.70;30.00;;;;;;10388084;28;20242;-71
2023/03/12 00:07:45;;;;;;;3.53;3.03;;;4.70;30.00;;;;;;10389737;28;20230;-72
2023/03/12 00:12:51;;;;;;;4.70;3.07;;;4.60;30.00;;;;;;10395790;28;20321;-72
2023/03/12 00:17:55;;;;;;;4.17;3.47;;;4.50;30.20;;;;;;10395718;28;20222;-72
2023/03/12 00:22:58;;;;;;;3.33;3.03;;;4.50;30.30;;;;;;10392297;28;20741;-72
2023/03/12 00:28:02;;;;;;;3.93;3.63;;;4.40;30.30;;;;;;10395777;28;20725;-72
2023/03/12 00:33:05;;;;;;;5.30;3.17;;;4.40;30.20;;;;;;10398870;28;20225;-72
2023/03/12 00:38:09;;;;;;;5.17;3.10;;;4.40;30.20;;;;;;10396278;28;20225;-72
2023/03/12 00:43:13;;;;;;;3.97;2.83;;;4.30;30.10;;;;;;10396984;28;20606;-72
2023/03/12 00:48:16;;;;;;;3.63;3.33;;;4.30;30.20;;;;;;10392154;28;20249;-72
2023/03/12 00:53:20;;;;;;;3.33;2.90;;;4.30;30.10;;;;;;10390811;28;20237;-74
2023/03/12 00:58:24;;;;;;;3.37;3.07;;;4.20;30.10;;;;;;10393959;28;20228;-74
2023/03/12 01:03:27;;;;;;;3.30;3.00;;;4.10;30.10;;;;;;10397202;28;20240;-74
2023/03/12 01:08:31;;;;;;;3.43;3.13;;;4.00;30.00;;;;;;10395267;28;20221;-74
2023/03/12 01:13:35;;;;;;;3.70;3.20;;;3.90;30.40;;;;;;10394415;28;20225;-74
2023/03/12 01:18:39;;;;;;;3.50;3.20;;;3.90;30.70;;;;;;10395266;28;20232;-74
2023/03/12 01:23:42;;;;;;;3.00;2.70;;;3.80;30.40;;;;;;10396136;28;20257;-74
2023/03/12 01:28:47;;;;;;;3.27;2.97;;;3.80;30.30;;;;;;10395902;28;20227;-74
2023/03/12 01:33:51;;;;;;;3.77;2.93;;;3.70;30.70;;;;;;10401358;28;20233;-74
2023/03/12 01:38:56;;;;;;;3.87;3.27;;;3.60;30.70;;;;;;10397221;28;20218;-74
2023/03/12 01:44:02;;;;;;;3.60;2.87;;;3.60;30.80;;;;;;10405604;28;20240;-74
2023/03/12 01:49:09;;;;;;;3.63;2.83;;;3.60;30.70;;;;;;10387601;28;20222;-74
2023/03/12 01:54:15;;;;;;;3.33;2.80;;;3.60;30.70;;;;;;10405538;23;20231;-71
2023/03/12 01:59:23;;;;;;;3.37;2.93;;;3.50;30.80;;;;;;10429659;28;20232;-71
2023/03/12 02:04:28;;;;;;;3.47;2.50;;;3.50;31.00;;;;;;10414008;28;20230;-71
2023/03/12 02:09:33;;;;;;;3.03;2.83;;;3.50;30.90;;;;;;10403799;28;20229;-72
2023/03/12 02:14:38;;;;;;;4.17;3.50;;;3.50;31.00;;;;;;10407595;28;20233;-72
2023/03/12 02:19:50;;;;;;;3.50;3.20;;;3.50;31.00;;;;;;10401856;28;20233;-71
2023/03/12 02:25:02;;;;;;;3.97;3.20;;;3.40;31.20;;;;;;10405632;28;20238;-71
2023/03/12 02:30:09;;;;;;;3.87;3.10;;;3.40;31.10;;;;;;10402897;28;20229;-71
2023/03/12 02:35:13;;;;;;;4.53;3.10;;;3.40;31.10;;;;;;10399496;28;20239;-71
2023/03/12 02:40:23;;;;;;;3.30;3.00;;;3.40;30.90;;;;;;10401566;28;20226;-71
2023/03/12 02:45:28;;;;;;;3.57;2.80;;;3.40;31.20;;;;;;10405369;28;20236;-71
2023/03/12 02:50:31;;;;;;;3.87;3.20;;;3.30;30.90;;;;;;10405522;28;20279;-72
2023/03/12 02:55:35;;;;;;;3.73;2.97;;;3.20;30.70;;;;;;10399506;28;20236;-71
2023/03/12 03:00:39;;;;;;;3.53;3.23;;;3.10;30.80;;;;;;10405273;28;20225;-71
2023/03/12 03:05:42;;;;;;;4.73;3.47;;;3.10;31.00;;;;;;10402831;28;20230;-71
2023/03/12 03:17:13;;;;;;;4.47;3.30;;;2.80;31.90;;;;;;10347180;28;20211;-71
2023/03/12 03:22:16;;;;;;;3.47;3.17;;;2.70;31.40;;;;;;10363970;28;20596;-71
2023/03/12 03:27:19;;;;;;;3.97;3.53;;;2.70;31.50;;;;;;10365799;28;20237;-71
2023/03/12 03:32:24;;;;;;;4.17;3.50;;;2.80;31.70;;;;;;10360963;28;20331;-71
2023/03/12 03:37:27;;;;;;;4.13;3.40;;;2.80;31.70;;;;;;10365026;28;20595;-71
2023/03/12 03:42:30;;;;;;;4.47;3.87;;;2.80;31.70;;;;;;10361461;28;20236;-71
2023/03/12 03:47:35;;;;;;;4.30;3.90;;;2.80;31.80;;;;;;10362069;28;20319;-71
2023/03/12 03:52:38;;;;;;;4.03;3.60;;;2.80;32.00;;;;;;10362828;28;20229;-71
2023/03/12 03:57:41;;;;;;;4.13;3.50;;;2.80;32.00;;;;;;10359451;28;20241;-70
2023/03/12 04:02:46;;;;;;;4.83;3.73;;;2.80;32.10;;;;;;10364659;28;20730;-71
2023/03/12 04:07:51;;;;;;;4.27;3.70;;;2.90;32.30;;;;;;10363137;28;20229;-71
2023/03/12 04:12:55;;;;;;;4.07;3.10;;;2.90;32.00;;;;;;10361517;28;20257;-71
2023/03/12 04:18:00;;;;;;;3.53;3.20;;;2.90;32.00;;;;;;10364402;28;20283;-71
2023/03/12 04:23:03;;;;;;;4.07;3.30;;;2.90;32.20;;;;;;10355804;28;20863;-71
2023/03/12 04:28:07;;;;;;;3.57;3.27;;;2.80;32.20;;;;;;10359659;28;20241;-71
2023/03/12 04:33:11;;;;;;;4.87;3.57;;;2.90;32.40;;;;;;10363302;28;20931;-72
2023/03/12 04:38:14;;;;;;;3.30;2.97;;;2.90;32.60;;;;;;10361355;28;20230;-71
2023/03/12 04:43:19;;;;;;;3.70;3.40;;;3.00;32.50;;;;;;10361075;28;20234;-71
2023/03/12 04:48:25;;;;;;;3.70;3.40;;;3.00;32.40;;;;;;10363807;28;20257;-71
2023/03/12 04:53:28;;;;;;;4.17;3.40;;;3.00;32.60;;;;;;10358778;28;20230;-71
2023/03/12 04:58:31;;;;;;;3.50;3.20;;;3.00;32.30;;;;;;10362480;28;20277;-71
2023/03/12 05:03:37;;;;;;;3.83;3.43;;;3.00;32.40;;;;;;10360585;28;20610;-71
2023/03/12 05:08:40;;;;;;;4.07;3.50;;;3.10;32.70;;;;;;10363954;28;20226;-71
2023/03/12 05:13:43;;;;;;;4.27;3.50;;;3.10;32.50;;;;;;10359247;28;20230;-71
2023/03/12 05:18:48;;;;;;;3.30;3.00;;;3.10;32.50;;;;;;10360832;28;20230;-72
2023/03/12 05:23:51;;;;;;;3.80;3.50;;;3.10;32.60;;;;;;10359956;28;20245;-71
2023/03/12 05:28:55;;;;;;;4.07;3.67;;;3.10;32.50;;;;;;10357446;28;20238;-71
2023/03/12 05:33:59;;;;;;;4.83;3.57;;;3.10;32.60;;;;;;10361709;28;20262;-71
2023/03/12 05:39:03;;;;;;;3.67;3.37;;;3.10;32.80;;;;;;10370074;28;20241;-71
2023/03/12 05:44:06;;;;;;;3.60;3.30;;;3.10;32.70;;;;;;10374934;28;20241;-71
2023/03/12 05:49:11;;;;;;;3.83;3.43;;;3.10;32.80;;;;;;10372283;28;20240;-71
2023/03/12 05:54:15;;;;;;;3.53;3.23;;;3.00;32.90;;;;;;10374857;28;20242;-72
2023/03/12 05:59:18;;;;;;;4.60;3.40;;;3.00;32.70;;;;;;10374903;28;20234;-72
2023/03/12 06:04:23;;;;;;;3.77;3.47;;;3.10;33.10;;;;;;10374563;28;20226;-71
2023/03/12 06:09:26;;;;;;;3.33;3.03;;;3.00;33.30;;;;;;10375160;28;20642;-71
2023/03/12 06:14:29;;;;;;;4.27;3.60;;;3.00;33.20;;;;;;10373711;28;20235;-71
2023/03/12 06:19:34;;;;;;;4.37;3.80;;;3.10;33.30;;;;;;10376270;28;20232;-71
2023/03/12 06:24:37;;;;;;;4.43;3.77;;;3.20;33.50;;;;;;10376034;28;20226;-71
2023/03/12 06:29:40;;;;;;;4.40;3.87;;;3.30;33.30;;;;;;10372311;28;20234;-71
2023/03/12 06:34:46;;;;;;;3.93;3.53;;;3.30;33.20;;;;;;10373272;28;20230;-72
2023/03/12 06:39:50;;;;;;;5.23;3.80;;;3.50;33.60;;;;;;10374400;28;20222;-72
2023/03/12 06:44:53;;;;;;;3.63;3.33;;;3.40;33.40;;;;;;10374670;28;20225;-71
2023/03/12 06:49:58;;;;;;;4.93;3.50;;;3.40;33.50;;;;;;10363786;28;20237;-71
2023/03/12 06:55:01;;;;;;;4.47;3.37;;;3.50;33.60;;;;;;10363968;28;20236;-71
2023/03/12 07:00:06;;;;;;;3.80;3.50;;;3.50;33.30;;;;;;10362662;28;20230;-71
2023/03/12 07:05:11;;;;;;;4.37;3.60;;;3.60;33.70;;;;;;10368152;28;20265;-71
2023/03/12 07:10:15;;;;;;;4.57;4.00;;;3.50;33.80;;;;;;10365097;28;20230;-73
2023/03/12 07:15:18;;;;;;;4.67;4.17;;;3.60;33.80;;;;;;10366796;28;20234;-73
2023/03/12 07:20:23;;;;;;;5.23;4.50;;;3.60;33.80;;;;;;10365302;28;20647;-73
2023/03/12 07:25:26;;;;;;;4.77;4.27;;;3.70;34.20;;;;;;10361901;28;20237;-71
2023/03/12 07:30:32;;;;;;;4.63;4.20;;;3.70;34.20;;;;;;10370414;28;20229;-71
2023/03/12 07:35:38;;;;;;;4.87;4.47;;;3.90;34.50;;;;;;10365506;28;20597;-72
2023/03/12 07:40:41;;;;;;;4.87;4.37;;;4.00;34.80;;;;;;10362963;28;20286;-71
2023/03/12 07:45:45;;;;;;;4.77;4.37;;;4.10;34.60;;;;;;10364612;28;20232;-72
2023/03/12 07:50:50;;;;;;;5.50;5.03;;;4.20;34.60;;;;;;10361813;28;20629;-72
2023/03/12 07:55:55;;;;;;;5.53;4.93;;;4.30;34.70;;;;;;10362917;28;20237;-72
2023/03/12 08:00:58;;;;;;;6.83;5.57;;;4.40;34.60;;;;;;10364416;28;20218;-72
2023/03/12 08:06:04;;;;;;;7.77;5.43;;;4.50;34.40;;;;;;10359007;28;20231;-72
2023/03/12 08:11:09;;;;;;;6.17;5.57;;;4.60;34.90;;;;;;10361683;28;20729;-72
2023/03/12 08:16:13;;;;;;;6.43;5.47;;;4.70;34.60;;;;;;10364974;28;20234;-72
2023/03/12 08:21:18;;;;;;;6.10;5.60;;;4.70;34.50;;;;;;10363605;28;20738;-72
2023/03/12 08:26:21;;;;;;;7.27;5.33;;;4.80;34.80;;;;;;10365657;28;20714;-72
2023/03/12 08:31:24;;;;;;;5.63;5.13;;;4.90;34.70;;;;;;10361952;28;20238;-72
2023/03/12 08:36:29;;;;;;;6.43;5.70;;;4.90;35.10;;;;;;10357327;28;20245;-72
2023/03/12 08:41:32;;;;;;;6.93;6.20;;;5.00;35.60;;;;;;10361501;28;20264;-72
2023/03/12 08:46:35;;;;;;;6.07;5.50;;;5.00;35.30;;;;;;10348272;28;20241;-73
2023/03/12 08:51:39;;;;;;;5.53;5.03;;;5.00;35.30;;;;;;10340594;28;20238;-73
2023/03/12 08:56:43;;;;;;;6.83;6.20;;;5.10;35.50;;;;;;10360875;28;20602;-72
2023/03/12 09:01:46;;;;;;;6.83;6.17;;;5.20;35.40;;;;;;10357916;28;20237;-72
2023/03/12 09:06:51;;;;;;;7.13;6.50;;;5.30;35.70;;;;;;10356197;28;20230;-72
2023/03/12 09:11:54;;;;;;;7.93;6.93;;;5.30;36.10;;;;;;10355733;28;20241;-72
2023/03/12 09:16:57;;;;;;;7.10;6.50;;;5.40;35.70;;;;;;10360783;28;20229;-71
2023/03/12 09:22:02;;;;;;;9.07;8.20;;;5.30;35.60;;;;;;10355936;28;20233;-72
2023/03/12 09:27:05;;;;;;;10.30;9.33;;;5.40;36.10;;;;;;10354549;28;20285;-71
2023/03/12 09:32:09;;;;;;;7.10;5.40;;;5.40;36.10;;;;;;10360579;28;20242;-74
2023/03/12 09:37:13;;;;;;;12.87;11.57;;;5.50;36.40;;;;;;10362706;28;20241;-73
2023/03/12 09:42:23;;;;;;;9.67;7.70;;;5.50;36.80;;;;;;10358118;28;20233;-74
2023/03/12 09:47:30;;;;;;;5.77;5.17;;;5.60;37.30;;;;;;10363194;28;20736;-74
2023/03/12 09:52:40;;;;;;;13.03;11.73;;;5.70;37.30;;;;;;10357803;28;20717;-75
2023/03/12 09:57:44;;;;;;;8.00;7.20;;;5.80;37.50;;;;;;10357525;28;20260;-76
2023/03/12 10:03:17;;;;;;;8.73;6.97;;;5.90;37.00;;;;;;10358826;28;20229;-78
2023/03/12 10:08:27;;;;;;;6.10;5.50;;;6.00;38.30;;;;;;10353150;28;20230;-74
2023/03/12 10:13:59;;;;;;;6.63;5.53;;;6.20;37.80;;;;;;10361266;28;20312;-74
2023/03/12 10:19:20;;;;;;;6.33;5.77;;;6.50;39.00;;;;;;10383908;23;20241;-74
2023/03/12 10:24:36;;;;;;;6.40;5.80;;;6.70;38.20;;;;;;10385587;28;20238;-72
2023/03/12 10:29:42;;;;;;;7.57;6.87;;;6.90;38.30;;;;;;10367189;28;20230;-72
2023/03/12 10:34:50;;;;;;;6.87;6.27;;;7.10;37.70;;;;;;10363568;28;20234;-73
2023/03/12 10:39:55;;;;;;;7.00;6.40;;;7.20;37.50;;;;;;10369871;28;20233;-73
2023/03/12 10:45:01;;;;;;;6.80;6.17;;;7.30;37.50;;;;;;10361271;28;20230;-72
2023/03/12 10:50:17;;;;;;;7.83;7.13;;;7.40;37.60;;;;;;10367586;28;20810;-72
2023/03/12 10:55:26;;;;;;;7.33;6.63;;;7.50;38.80;;;;;;10368185;28;20229;-72
2023/03/12 11:00:31;;;;;;;8.13;7.40;;;7.70;38.10;;;;;;10365436;28;20234;-72
2023/03/12 11:05:37;;;;;;;7.20;6.60;;;7.80;37.30;;;;;;10363182;28;20236;-72
2023/03/12 11:10:45;;;;;;;9.77;8.77;;;7.90;37.40;;;;;;10370096;28;20305;-71
2023/03/12 11:15:49;;;;;;;6.10;5.60;;;8.10;37.90;;;;;;10368316;28;20756;-70
2023/03/12 11:20:55;;;;;;;5.33;4.90;;;8.20;37.90;;;;;;10366182;28;20230;-73
2023/03/12 11:26:02;;;;;;;5.73;5.33;;;8.30;38.10;;;;;;10361602;28;20296;-69
2023/03/12 11:31:10;;;;;;;6.60;5.97;;;8.30;38.80;;;;;;10359865;28;20996;-69
2023/03/12 11:36:39;;;;;;;4.80;4.40;;;8.40;39.10;;;;;;10367909;28;20226;-70
2023/03/12 11:42:00;;;;;;;4.90;4.43;;;8.40;39.60;;;;;;10353957;28;20222;-70
2023/03/12 11:47:19;;;;;;;4.77;4.33;;;8.40;39.60;;;;;;10358686;28;20222;-71
2023/03/12 11:52:30;;;;;;;4.47;4.07;;;8.50;40.40;;;;;;10363608;28;20683;-71
2023/03/12 11:57:42;;;;;;;5.23;4.73;;;8.50;39.70;;;;;;10361089;28;20222;-71
2023/03/12 12:03:18;;;;;;;4.20;3.80;;;8.60;39.70;;;;;;10366124;28;20242;-71
2023/03/12 12:08:43;;;;;;;3.93;3.63;;;8.60;40.60;;;;;;10365135;28;20234;-70
2023/03/12 12:13:57;;;;;;;3.20;3.00;;;8.70;40.50;;;;;;10365345;28;20226;-71
2023/03/12 12:19:13;;;;;;;3.13;2.93;;;8.70;40.40;;;;;;10362762;28;20616;-71
2023/03/12 12:24:34;;;;;;;5.67;5.03;;;8.80;40.60;;;;;;10366715;28;20676;-72
2023/03/12 12:30:11;;;;;;;5.60;5.10;;;8.80;41.00;;;;;;10360212;28;20241;-71
2023/03/12 12:35:25;;;;;;;4.37;3.97;;;8.90;40.90;;;;;;10318227;28;20241;-71
2023/03/12 12:40:36;;;;;;;3.47;3.00;;;8.90;40.40;;;;;;10363870;28;20565;-71
2023/03/12 12:45:42;;;;;;;3.10;2.90;;;8.90;40.00;;;;;;10366622;28;20322;-72
2023/03/12 12:50:47;;;;;;;3.30;3.00;;;9.00;40.10;;;;;;10354391;28;20710;-71
2023/03/12 12:56:00;;;;;;;2.53;2.33;;;9.00;40.10;;;;;;10368257;28;20592;-71
2023/03/12 13:01:05;;;;;;;2.60;2.40;;;9.10;41.10;;;;;;10365518;28;20660;-71
2023/03/12 13:06:10;;;;;;;2.53;2.33;;;9.10;40.30;;;;;;10369260;28;20274;-71
2023/03/12 13:11:26;;;;;;;2.63;2.43;;;9.20;40.20;;;;;;10370465;28;20230;-71
2023/03/12 13:16:34;;;;;;;2.73;2.53;;;9.20;42.20;;;;;;10361366;28;20713;-72
2023/03/12 13:21:40;;;;;;;2.57;2.30;;;9.30;41.90;;;;;;10369897;28;20298;-71
2023/03/12 13:26:54;;;;;;;2.50;2.30;;;9.40;41.50;;;;;;10362606;28;20233;-72
2023/03/12 13:31:58;;;;;;;2.73;2.53;;;9.40;42.30;;;;;;10360234;28;20245;-71
2023/03/12 13:37:03;;;;;;;3.10;2.80;;;9.50;41.10;;;;;;10363719;28;20238;-72
2023/03/12 13:42:34;;;;;;;3.00;2.80;;;9.60;41.20;;;;;;10363516;28;20226;-72
2023/03/12 13:47:43;;;;;;;3.70;3.40;;;9.70;42.90;;;;;;10366758;28;20236;-72
2023/03/12 13:52:50;;;;;;;2.90;2.70;;;9.80;42.70;;;;;;10356088;28;20773;-72
2023/03/12 13:57:56;;;;;;;3.57;3.27;;;9.90;41.40;;;;;;10362366;28;20605;-71
2023/03/12 14:03:04;;;;;;;3.20;3.00;;;10.00;40.90;;;;;;10379289;28;20226;-71
2023/03/12 14:08:43;;;;;;;3.10;2.90;;;10.10;41.20;;;;;;10370276;28;20603;-72
2023/03/12 14:14:05;;;;;;;3.17;2.97;;;10.20;41.40;;;;;;10366681;28;20415;-72
2023/03/12 14:19:14;;;;;;;3.47;3.20;;;10.30;41.80;;;;;;10368671;28;20233;-72
2023/03/12 14:24:24;;;;;;;3.57;3.27;;;10.30;41.10;;;;;;10369551;28;20235;-72
2023/03/12 14:29:31;;;;;;;3.93;3.53;;;10.40;41.70;;;;;;10369633;28;20288;-71
2023/03/12 14:34:41;;;;;;;3.93;3.63;;;10.40;41.00;;;;;;10364821;28;20226;-72
2023/03/12 14:39:47;;;;;;;4.23;3.60;;;10.50;41.70;;;;;;10364189;28;20721;-72
2023/03/12 14:45:00;;;;;;;3.57;3.37;;;10.60;41.10;;;;;;10367088;28;20333;-72
2023/03/12 14:50:05;;;;;;;4.07;3.67;;;10.60;42.00;;;;;;10323979;28;20234;-72
2023/03/12 14:55:14;;;;;;;4.07;3.77;;;10.70;41.20;;;;;;10334682;28;20588;-72
2023/03/12 15:00:25;;;;;;;3.83;3.53;;;10.80;42.00;;;;;;10323271;28;20292;-72
2023/03/12 15:05:29;;;;;;;3.90;3.60;;;10.80;42.30;;;;;;10325865;28;20234;-69
2023/03/12 15:10:33;;;;;;;4.77;3.40;;;10.90;41.40;;;;;;10321995;28;20235;-70
2023/03/12 15:15:41;;;;;;;3.90;3.60;;;11.00;41.30;;;;;;10367786;28;20229;-72
2023/03/12 15:20:46;;;;;;;4.03;3.73;;;11.10;42.30;;;;;;10364272;28;20625;-72
2023/03/12 15:26:09;;;;;;;4.10;3.80;;;11.20;41.90;;;;;;10364615;28;20501;-72
2023/03/12 15:31:15;;;;;;;4.30;3.90;;;11.30;42.90;;;;;;10363970;28;20608;-72
2023/03/12 15:36:29;;;;;;;4.80;4.40;;;11.40;41.70;;;;;;10359335;28;20249;-72
2023/03/12 15:41:47;;;;;;;4.27;3.80;;;11.40;42.70;;;;;;10362046;28;20226;-72
2023/03/12 15:47:02;;;;;;;4.63;4.23;;;11.40;42.50;;;;;;10365350;28;20706;-72
2023/03/12 15:52:26;;;;;;;5.13;4.67;;;11.40;42.00;;;;;;10365316;28;20233;-72
2023/03/12 15:57:30;;;;;;;6.43;5.83;;;11.50;42.70;;;;;;10366212;28;20238;-73
2023/03/12 16:02:38;;;;;;;5.43;5.03;;;11.50;41.30;;;;;;10384128;28;20228;-71
2023/03/12 16:07:42;;;;;;;5.30;4.90;;;11.60;42.30;;;;;;10360710;28;20597;-71
2023/03/12 16:12:48;;;;;;;5.90;5.40;;;11.60;41.40;;;;;;10373531;28;20230;-71
2023/03/12 16:17:52;;;;;;;5.27;4.83;;;11.60;41.30;;;;;;10367799;28;20235;-71
2023/03/12 16:22:56;;;;;;;5.17;4.60;;;11.70;41.40;;;;;;10370167;28;20237;-70
2023/03/12 16:28:02;;;;;;;8.63;7.83;;;11.60;41.30;;;;;;10361311;28;20234;-71
2023/03/12 16:33:06;;;;;;;8.77;7.87;;;11.70;41.60;;;;;;10350876;28;20226;-71
2023/03/12 16:38:12;;;;;;;7.60;6.90;;;11.70;41.50;;;;;;10341364;28;20229;-71
2023/03/12 16:43:18;;;;;;;8.00;7.20;;;11.70;41.50;;;;;;10361667;28;20238;-70
2023/03/12 16:48:25;;;;;;;6.67;6.17;;;11.70;41.90;;;;;;10360982;28;20872;-71
2023/03/12 16:53:29;;;;;;;6.67;6.07;;;11.80;41.50;;;;;;10357565;28;20313;-70
2023/03/12 16:58:33;;;;;;;7.63;7.00;;;11.80;41.50;;;;;;10359926;28;20225;-71
2023/03/12 17:03:38;;;;;;;7.13;6.37;;;11.80;41.50;;;;;;10358204;28;20242;-71
2023/03/12 17:08:42;;;;;;;7.10;6.40;;;11.80;41.50;;;;;;10343627;28;20241;-70
2023/03/12 17:13:48;;;;;;;6.70;6.10;;;11.90;41.60;;;;;;10359656;28;20944;-70
2023/03/12 17:18:51;;;;;;;6.90;6.30;;;11.90;41.60;;;;;;10360533;28;20217;-70
2023/03/12 17:23:56;;;;;;;5.07;4.57;;;11.80;41.50;;;;;;10353922;28;20736;-70
2023/03/12 17:28:59;;;;;;;4.97;4.57;;;11.80;41.50;;;;;;10347415;28;20234;-70
2023/03/12 17:34:03;;;;;;;4.87;4.27;;;11.80;41.50;;;;;;10368784;28;20230;-72
2023/03/12 17:39:07;;;;;;;4.23;3.93;;;11.80;41.50;;;;;;10364751;28;20232;-70
2023/03/12 17:44:12;;;;;;;5.03;4.50;;;11.80;41.90;;;;;;10354233;28;20741;-71
2023/03/12 17:49:15;;;;;;;5.33;4.83;;;11.80;42.20;;;;;;10359294;28;20242;-71
2023/03/12 17:54:20;;;;;;;4.97;4.47;;;11.80;41.60;;;;;;10355963;28;20234;-72
2023/03/12 17:59:24;;;;;;;6.87;6.27;;;11.80;41.90;;;;;;10363279;28;20246;-73
2023/03/12 18:04:27;;;;;;;6.67;6.07;;;11.80;41.50;;;;;;10363647;28;20238;-73
2023/03/12 18:09:31;;;;;;;7.63;6.93;;;11.70;41.40;;;;;;10360000;28;20595;-74
2023/03/12 18:14:35;;;;;;;10.33;9.23;;;11.70;41.80;;;;;;10365403;28;20735;-73
2023/03/12 18:19:38;;;;;;;9.07;7.47;;;11.60;41.40;;;;;;10369106;28;20230;-73
2023/03/12 18:24:42;;;;;;;9.00;8.20;;;11.60;41.60;;;;;;10360350;28;20767;-74
2023/03/12 18:29:48;;;;;;;8.03;7.23;;;11.50;42.40;;;;;;10365904;28;20602;-73
2023/03/12 18:34:52;;;;;;;9.70;7.23;;;11.50;41.90;;;;;;10367916;28;20249;-73
2023/03/12 18:39:56;;;;;;;7.13;6.43;;;11.50;42.00;;;;;;10375088;28;20218;-73
2023/03/12 18:44:59;;;;;;;8.37;7.27;;;11.50;42.70;;;;;;10370340;28;20282;-74
2023/03/12 18:50:02;;;;;;;8.83;7.97;;;11.40;42.10;;;;;;10374696;28;20230;-73
2023/03/12 18:55:13;;;;;;;8.83;6.90;;;11.40;42.10;;;;;;10365731;28;20240;-74
2023/03/12 19:00:18;;;;;;;7.53;5.70;;;11.50;42.90;;;;;;10370325;28;20333;-72
2023/03/12 19:05:21;;;;;;;7.00;6.03;;;11.50;42.60;;;;;;10364740;28;20245;-73
2023/03/12 19:10:26;;;;;;;6.87;5.57;;;11.50;42.30;;;;;;10371175;28;20323;-73
2023/03/12 19:15:30;;;;;;;6.77;5.13;;;11.50;42.70;;;;;;10366918;28;20234;-73
2023/03/12 19:20:33;;;;;;;10.07;5.37;;;11.50;42.30;;;;;;10364989;28;20276;-73
2023/03/12 19:25:38;;;;;;;6.43;4.80;;;11.50;42.30;;;;;;10364580;28;20241;-73
2023/03/12 19:30:41;;;;;;;6.03;5.30;;;11.50;42.70;;;;;;10359666;28;20249;-73
2023/03/12 19:35:44;;;;;;;6.90;5.80;;;11.40;42.20;;;;;;10357278;28;20250;-73
2023/03/12 19:40:50;;;;;;;7.60;6.00;;;11.40;42.20;;;;;;10360039;28;20217;-73
2023/03/12 19:45:56;;;;;;;7.63;6.67;;;11.30;43.10;;;;;;10360529;28;20234;-73
2023/03/12 19:51:05;;;;;;;6.80;6.10;;;11.30;42.40;;;;;;10353296;28;20671;-73
2023/03/12 19:56:10;;;;;;;6.97;6.27;;;11.20;43.70;;;;;;10356183;28;20571;-73
2023/03/12 20:01:13;;;;;;;6.90;5.97;;;11.10;43.10;;;;;;10364515;28;20233;-73
2023/03/12 20:06:16;;;;;;;5.70;5.20;;;11.00;42.60;;;;;;10357114;28;20604;-72
2023/03/12 20:11:20;;;;;;;5.80;5.17;;;11.10;42.70;;;;;;10364963;28;20240;-72
2023/03/12 20:16:24;;;;;;;5.40;3.50;;;11.10;43.20;;;;;;10358430;28;20246;-72
2023/03/12 20:21:27;;;;;;;3.83;3.00;;;11.10;42.90;;;;;;10354962;28;20229;-72
2023/03/12 20:26:33;;;;;;;4.13;2.33;;;11.10;43.00;;;;;;10358408;28;20567;-73
2023/03/12 20:31:38;;;;;;;4.17;2.13;;;11.10;43.40;;;;;;10356453;28;20419;-72
2023/03/12 20:36:41;;;;;;;4.17;2.30;;;11.20;43.10;;;;;;10357660;28;20253;-73
2023/03/12 20:41:46;;;;;;;3.43;2.20;;;11.30;43.20;;;;;;10361359;28;20324;-73
2023/03/12 20:46:49;;;;;;;4.40;2.50;;;11.40;43.40;;;;;;10357825;28;20238;-73
2023/03/12 20:51:52;;;;;;;5.53;3.53;;;11.50;42.90;;;;;;10360301;28;20722;-73
2023/03/12 20:56:57;;;;;;;3.50;3.20;;;11.50;42.60;;;;;;10359322;28;20253;-73
2023/03/12 21:02:00;;;;;;;4.03;3.40;;;11.50;42.70;;;;;;10364443;28;20232;-73
2023/03/12 21:07:03;;;;;;;5.50;3.50;;;11.50;42.40;;;;;;10357296;28;20708;-72
2023/03/12 21:12:08;;;;;;;6.53;3.30;;;11.50;42.40;;;;;;10359264;28;20245;-72
2023/03/12 21:17:13;;;;;;;5.50;3.50;;;11.40;42.80;;;;;;10363874;28;20709;-75
2023/03/12 21:22:16;;;;;;;6.00;3.40;;;11.40;42.40;;;;;;10356837;28;20252;-73
2023/03/12 21:27:21;;;;;;;3.97;2.80;;;11.40;42.40;;;;;;10357566;28;20384;-73
2023/03/12 21:32:24;;;;;;;4.93;2.80;;;11.40;42.90;;;;;;10363997;28;20583;-73
2023/03/12 21:37:27;;;;;;;4.67;2.70;;;11.30;42.50;;;;;;10358659;28;20241;-73
2023/03/12 21:42:33;;;;;;;3.70;2.37;;;11.40;42.60;;;;;;10361242;28;20698;-72
2023/03/12 21:47:36;;;;;;;4.30;2.90;;;11.30;42.90;;;;;;10356257;28;20226;-73
2023/03/12 21:52:42;;;;;;;4.93;3.00;;;11.40;42.60;;;;;;10359602;28;20570;-73
2023/03/12 21:57:47;;;;;;;4.10;2.80;;;11.30;42.50;;;;;;10357237;28;20535;-72
2023/03/12 22:02:50;;;;;;;4.63;3.10;;;11.30;42.70;;;;;;10366221;28;20222;-73
2023/03/12 22:07:53;;;;;;;3.97;2.70;;;11.30;42.40;;;;;;10362296;28;20234;-73
2023/03/12 22:12:59;;;;;;;3.93;2.90;;;11.30;42.50;;;;;;10364198;28;20231;-72
2023/03/12 22:18:02;;;;;;;3.30;2.60;;;11.30;42.80;;;;;;10368677;28;20222;-71
2023/03/12 22:23:05;;;;;;;5.63;2.90;;;11.20;42.40;;;;;;10374032;28;20226;-72
2023/03/12 22:28:10;;;;;;;5.20;2.70;;;11.20;42.40;;;;;;10372564;28;20230;-72
2023/03/12 22:33:13;;;;;;;3.77;2.47;;;11.20;42.60;;;;;;10369169;28;20238;-73
2023/03/12 22:38:17;;;;;;;2.83;2.27;;;11.10;42.50;;;;;;10362231;28;20231;-73
2023/03/12 22:43:21;;;;;;;3.63;2.20;;;11.10;42.40;;;;;;10377915;28;20230;-73
2023/03/12 22:48:24;;;;;;;5.30;2.20;;;11.10;42.80;;;;;;10374248;28;20237;-73
2023/03/12 22:53:28;;;;;;;3.33;2.30;;;11.10;42.60;;;;;;10370965;28;20230;-73
2023/03/12 22:58:33;;;;;;;4.00;2.20;;;11.10;42.60;;;;;;10370336;28;20706;-73
2023/03/12 23:03:38;;;;;;;3.30;2.23;;;11.00;43.00;;;;;;10371212;28;20229;-73
2023/03/12 23:08:41;;;;;;;3.47;2.20;;;11.00;43.00;;;;;;10375782;28;20234;-73
2023/03/12 23:13:48;;;;;;;3.47;2.20;;;11.00;42.90;;;;;;10365987;28;20230;-73
2023/03/12 23:18:51;;;;;;;3.00;2.10;;;11.00;43.10;;;;;;10374142;28;20254;-73
2023/03/12 23:23:54;;;;;;;3.53;1.83;;;11.00;42.80;;;;;;10368234;28;20698;-73
2023/03/12 23:28:59;;;;;;;2.63;1.80;;;11.00;42.70;;;;;;10372951;28;20229;-73
2023/03/12 23:34:02;;;;;;;2.73;1.70;;;11.00;43.00;;;;;;10367988;28;20236;-72
2023/03/12 23:39:05;;;;;;;4.80;2.40;;;11.10;42.80;;;;;;10373154;28;20668;-73
2023/03/12 23:44:10;;;;;;;4.37;2.60;;;11.10;42.70;;;;;;10368610;28;20241;-73
2023/03/12 23:49:13;;;;;;;4.07;2.27;;;11.10;42.90;;;;;;10369428;28;20226;-73
